Elmore, MN (56027)

5:34 AM CST on February 07, 2016 (GMT -0600)
Faribault County Law Enforcement Center | | Change Station
CLOSE
Current Station
Personal Weather Station
Location: Blue Earth, MN
Elevation: 1079 ft
Nearby Weather Stations
Active Advisory: Blizzard Warning

Elev 1079 ft 43.65 °N, 94.10 °W | Updated 5 minutes ago

Fog
Fog
33.8 °F
Feels Like 34 °F
N
0.0
Wind Variable Wind from WSW
Gusts 9.0 mph

Today
High -- | Low -- °F
--% Chance of Precip.
Yesterday
High -- | Low -- °F
Precip. -- in
Pressure 29.74 in
Visibility 10.0 miles
Clouds Clear
Windchill 34 °F
Dew Point 29 °F
Humidity 82%
Rainfall 0.00 in
Snow Depth Not available.
7:26 AM 5:35 PM
Waning Crescent, 2% visible
METAR KFRM 071115Z AUTO 27016G20KT 10SM CLR 02/M04 A2974 RMK AO1
Pressure 29.74 in
Visibility 10.0 miles
Clouds Clear
Windchill 34 °F
Dew Point 29 °F
Humidity 82%
Rainfall 0.00 in
Snow Depth Not available.
7:26 AM 5:35 PM
Waning Crescent, 2% visible
METAR KFRM 071115Z AUTO 27016G20KT 10SM CLR 02/M04 A2974 RMK AO1

10-Day Weather Forecast

Almanac

Astronomy

Feb. 07, 2016 Rise Set
Actual Time
Civil Twilight
Nautical Twilight
Astronomical Twilight
Moon
Length of Visible Light
Length of Day
Tomorrow will be .
, % of the Moon is Illuminated

Today's Extremes

State Highs State Lows

Community

WunderPhotos

Upload Photos

1,891,168 photos uploaded!

WunderBlog® & News

Nearby

Air Quality

  Air Quality AQ Index Pollutant
Not available.

Snow Depth

Station Depth Elevation

Earthquake Activity

City Distance Mag. Time & Date
Minimum magnitude displayed is 2.5.

Coastal Water Temperatures

Place Temperature

Stations

Nearby Weather Stations

Station Location Temp. Windchill Dew Point Humidity Wind Precip. Elev Updated Type
                   

Watches & Warnings

Blizzard Warning
Issued: 2:54 AM CST Feb. 7, 2016 – National Weather Service

... Blizzard Warning now in effect from 7 PM this evening to noon
CST Monday...

* expect blizzard conditions to develop after 7 PM this evening
and then diminish around noon Monday.

* Winds gusting as high as 55 mph will cause whiteout conditions
in blowing snow. Significant drifting of the snow is likely.

* Snow accumulations of up to 1 inch are expected.

* Travel will be very difficult or impossible and Road closures
are possible.

Precautionary/preparedness actions...

A Blizzard Warning means severe winter weather conditions are
expected. If you must travel... have a winter survival kit with
you. If you get stranded... stay with your vehicle. The latest Road
conditions for the state you are calling from can be obtained by
calling 5 1 1.